Time;durP1;ratioP1;P1;durP2;ratioP2;P2;SDS_P1;SDS_P2;PMS_P1;PMS_P2;Temp;Humidity;BMP_temperature;BMP_pressure;BME280_temperature;BME280_humidity;BME280_pressure;Samples;Min_cycle;Max_cycle;Signal;HPM_P1;HPM_P2
2022/11/13 00:01:25;;;;;;;75.17;33.05;;;;;;;6.04;100.00;100618.29;4293757;83;20992;-86
2022/11/13 00:16:28;;;;;;;70.45;31.85;;;;;;;6.06;100.00;100609.28;4372933;80;21060;-85
2022/11/13 00:23:08;;;;;;;71.22;33.38;;;;;;;6.09;100.00;100604.02;4360118;80;21032;-85
2022/11/13 00:30:00;;;;;;;58.65;27.87;;;;;;;6.06;100.00;100610.64;4357133;80;21033;-86
2022/11/13 00:36:32;;;;;;;65.35;28.70;;;;;;;6.05;100.00;100605.75;4282324;82;21031;-86
2022/11/13 00:50:12;;;;;;;74.30;32.85;;;;;;;5.98;100.00;100595.05;4250361;82;21016;-85
2022/11/13 00:56:45;;;;;;;76.15;32.55;;;;;;;6.01;100.00;100595.80;4256792;82;21392;-85
2022/11/13 01:03:52;;;;;;;72.30;30.00;;;;;;;5.97;100.00;100595.59;4159889;85;21483;-86
2022/11/13 01:11:02;;;;;;;68.52;29.65;;;;;;;5.90;100.00;100587.04;4070106;87;21678;-86
2022/11/13 01:18:04;;;;;;;77.75;32.30;;;;;;;5.88;100.00;100578.95;4194229;83;21027;-86
2022/11/13 01:24:31;;;;;;;67.20;29.70;;;;;;;5.81;100.00;100573.91;4259888;83;21174;-85
2022/11/13 01:31:40;;;;;;;67.30;29.48;;;;;;;5.76;100.00;100582.73;4167265;83;21041;-86
2022/11/13 01:38:06;;;;;;;65.05;28.70;;;;;;;5.68;100.00;100579.37;4214362;83;21742;-86
2022/11/13 01:52:03;;;;;;;68.00;29.48;;;;;;;5.54;100.00;100565.00;4246969;82;21028;-85
2022/11/13 02:05:28;;;;;;;73.37;31.35;;;;;;;5.60;100.00;100565.95;4347439;80;21005;-86
2022/11/13 02:19:14;;;;;;;71.47;31.82;;;;;;;5.73;100.00;100555.59;4345765;82;21030;-86
2022/11/13 02:25:42;;;;;;;76.47;31.27;;;;;;;5.79;100.00;100557.67;4326834;80;21029;-86
2022/11/13 02:53:13;;;;;;;71.15;30.02;;;;;;;5.59;100.00;100541.81;4332100;80;21010;-85
2022/11/13 02:59:41;;;;;;;69.30;29.15;;;;;;;5.52;100.00;100550.38;4271458;83;20985;-86
2022/11/13 03:13:05;;;;;;;68.95;29.50;;;;;;;5.49;100.00;100555.59;4301494;80;21040;-86
2022/11/13 03:19:40;;;;;;;63.15;27.45;;;;;;;5.45;100.00;100550.53;4340849;80;21032;-86
2022/11/13 03:32:54;;;;;;;72.50;29.50;;;;;;;5.36;100.00;100558.58;4343823;80;21131;-85
2022/11/13 04:00:31;;;;;;;65.80;27.48;;;;;;;5.43;100.00;100569.85;4235201;83;21087;-86
2022/11/13 04:07:35;;;;;;;65.92;26.62;;;;;;;5.43;100.00;100574.47;4260256;82;21468;-86
2022/11/13 04:14:47;;;;;;;67.25;27.13;;;;;;;5.38;100.00;100564.52;4221905;81;21103;-86
2022/11/13 04:22:04;;;;;;;51.35;21.65;;;;;;;5.38;100.00;100574.02;4184496;84;20971;-86
2022/11/13 04:36:14;;;;;;;70.05;25.65;;;;;;;5.22;100.00;100553.70;4257877;83;20952;-85
2022/11/13 04:42:50;;;;;;;69.07;26.62;;;;;;;5.23;100.00;100558.59;4175567;84;20995;-85
2022/11/13 04:49:36;;;;;;;68.28;26.07;;;;;;;5.21;100.00;100551.30;4234327;83;21024;-85
2022/11/13 04:56:21;;;;;;;61.60;24.57;;;;;;;5.24;100.00;100550.14;4263150;82;21865;-87
2022/11/13 05:09:28;;;;;;;60.35;23.07;;;;;;;5.06;100.00;100555.10;4344037;80;21013;-86
2022/11/13 05:23:32;;;;;;;60.52;23.65;;;;;;;4.99;100.00;100560.14;4417218;80;20937;-85
2022/11/13 05:30:20;;;;;;;59.40;22.80;;;;;;;4.95;100.00;100560.47;4373243;80;21069;-85
2022/11/13 05:36:53;;;;;;;58.55;22.02;;;;;;;4.94;100.00;100556.70;4347894;81;20970;-85
2022/11/13 05:43:18;;;;;;;58.38;22.45;;;;;;;4.90;100.00;100557.88;4426039;80;21001;-85
2022/11/13 05:50:22;;;;;;;57.03;22.87;;;;;;;4.92;100.00;100553.50;4425491;80;21021;-85
2022/11/13 05:56:48;;;;;;;53.98;21.70;;;;;;;4.87;100.00;100554.95;4420379;80;20969;-86
2022/11/13 06:03:34;;;;;;;51.55;22.95;;;;;;;4.77;100.00;100556.75;4333018;81;21073;-86
2022/11/13 06:10:01;;;;;;;44.42;19.82;;;;;;;4.70;100.00;100556.32;4343841;81;21033;-87
2022/11/13 06:24:15;;;;;;;31.87;13.63;;;;;;;4.59;100.00;100552.72;4229188;83;21536;-86
2022/11/13 06:30:49;;;;;;;36.20;17.35;;;;;;;4.53;100.00;100547.13;4239660;83;21710;-86
2022/11/13 06:37:48;;;;;;;41.30;18.52;;;;;;;4.64;100.00;100549.37;4270542;82;21530;-86
2022/11/13 06:44:25;;;;;;;46.02;18.80;;;;;;;4.70;100.00;100546.83;4222565;83;21047;-86
2022/11/13 06:51:31;;;;;;;48.38;20.85;;;;;;;4.76;100.00;100544.27;4197102;84;21067;-86
2022/11/13 06:58:13;;;;;;;45.83;19.90;;;;;;;4.76;100.00;100540.77;4201142;84;21059;-86
2022/11/13 07:04:44;;;;;;;45.63;21.75;;;;;;;4.68;100.00;100543.59;4241260;82;21514;-86
2022/11/13 07:11:36;;;;;;;44.48;20.35;;;;;;;4.61;100.00;100545.09;4229621;83;21095;-86
2022/11/13 07:18:39;;;;;;;39.30;18.32;;;;;;;4.63;100.00;100545.61;4126485;84;21502;-86
2022/11/13 07:32:24;;;;;;;47.58;21.10;;;;;;;4.51;100.00;100534.44;4168126;83;21062;-86
2022/11/13 07:39:21;;;;;;;44.40;20.43;;;;;;;4.55;100.00;100525.41;4224164;83;21017;-85
2022/11/13 07:53:34;;;;;;;33.28;17.42;;;;;;;4.66;100.00;100528.73;4127292;84;22063;-86
2022/11/13 08:00:07;;;;;;;39.60;19.25;;;;;;;4.64;100.00;100534.46;4151585;86;21000;-86
2022/11/13 08:13:51;;;;;;;47.70;21.70;;;;;;;4.71;100.00;100542.22;4124954;84;21064;-85
2022/11/13 08:20:23;;;;;;;53.58;23.12;;;;;;;4.79;100.00;100549.09;4129546;83;21042;-85
2022/11/13 08:26:56;;;;;;;40.50;20.57;;;;;;;4.89;100.00;100556.24;4255101;82;20983;-84
2022/11/13 08:33:22;;;;;;;39.27;20.27;;;;;;;4.92;100.00;100554.86;4233289;82;21012;-85
2022/11/13 08:40:05;;;;;;;42.48;20.82;;;;;;;4.90;100.00;100557.06;4263696;82;20995;-85
2022/11/13 08:46:33;;;;;;;43.42;21.02;;;;;;;4.98;100.00;100553.08;4161149;84;21595;-85
2022/11/13 08:53:05;;;;;;;43.35;20.97;;;;;;;5.06;100.00;100548.31;4182662;84;21027;-84
2022/11/13 08:59:30;;;;;;;50.28;24.43;;;;;;;5.06;100.00;100552.39;4198338;84;21601;-85
2022/11/13 09:06:09;;;;;;;42.03;21.42;;;;;;;5.11;100.00;100552.84;4264620;81;21039;-85
2022/11/13 09:12:35;;;;;;;37.67;21.05;;;;;;;5.21;100.00;100551.30;4247059;82;21079;-84
2022/11/13 09:19:18;;;;;;;44.40;21.73;;;;;;;5.19;100.00;100552.95;4266079;82;21082;-84
2022/11/13 09:25:47;;;;;;;44.65;21.35;;;;;;;5.27;100.00;100549.53;4259953;82;21030;-85
2022/11/13 09:32:07;;;;;;;45.28;23.98;;;;;;;5.43;100.00;100533.73;4248774;82;21015;-85
2022/11/13 09:38:59;;;;;;;44.42;25.27;;;;;;;5.62;100.00;100536.55;4242641;82;22345;-86
2022/11/13 10:00:13;;;;;;;44.67;23.12;;;;;;;5.86;100.00;100526.81;4184708;84;21051;-86
2022/11/13 10:21:27;;;;;;;46.93;24.33;;;;;;;6.20;100.00;100506.14;4138925;85;21027;-86
2022/11/13 10:28:01;;;;;;;48.90;24.47;;;;;;;6.24;100.00;100502.25;4180163;84;21049;-86
2022/11/13 10:34:43;;;;;;;50.30;25.02;;;;;;;6.35;100.00;100506.33;4139389;85;21046;-85
2022/11/13 11:03:58;;;;;;;40.83;21.97;;;;;;;6.56;100.00;100497.09;4158244;85;20986;-85
2022/11/13 11:24:49;;;;;;;46.88;24.18;;;;;;;7.03;100.00;100493.62;4315781;82;21131;-85
2022/11/13 11:31:35;;;;;;;46.33;23.92;;;;;;;7.15;100.00;100491.09;4219881;82;21040;-84
2022/11/13 11:38:33;;;;;;;43.58;22.67;;;;;;;7.20;100.00;100478.14;4256666;82;21040;-85
2022/11/13 12:29:47;;;;;;;53.38;27.58;;;;;;;7.36;100.00;100418.56;4187104;85;21114;-84
2022/11/13 12:36:14;;;;;;;55.12;27.07;;;;;;;7.43;100.00;100407.42;4052030;86;21549;-85
2022/11/13 13:12:16;;;;;;;65.35;30.15;;;;;;;7.47;100.00;100384.43;4121268;85;21037;-85
2022/11/13 13:18:39;;;;;;;59.85;29.55;;;;;;;7.42;100.00;100381.28;4022403;87;21048;-85
2022/11/13 13:25:51;;;;;;;67.60;32.65;;;;;;;7.34;100.00;100384.83;4020542;85;21020;-85
2022/11/13 13:32:58;;;;;;;61.20;30.43;;;;;;;7.35;100.00;100385.06;4180876;85;20960;-85
2022/11/13 13:54:50;;;;;;;67.90;34.67;;;;;;;7.05;100.00;100359.30;4161256;84;21144;-85
2022/11/13 14:01:41;;;;;;;70.20;35.15;;;;;;;7.08;100.00;100354.61;4201791;83;21119;-85
2022/11/13 14:16:19;;;;;;;61.77;32.48;;;;;;;7.09;100.00;100350.20;4160915;85;21595;-85
2022/11/13 14:37:47;;;;;;;65.92;34.58;;;;;;;6.78;100.00;100335.88;4009070;88;21065;-85
2022/11/13 14:44:33;;;;;;;65.83;34.50;;;;;;;6.76;100.00;100328.62;4020808;87;21547;-84
2022/11/13 14:51:23;;;;;;;60.40;31.40;;;;;;;6.72;100.00;100328.99;4074915;86;21041;-85
2022/11/13 15:05:38;;;;;;;71.13;37.43;;;;;;;6.53;100.00;100303.20;4088244;86;20990;-85
2022/11/13 15:12:11;;;;;;;66.47;36.93;;;;;;;6.53;100.00;100303.20;4072184;87;22384;-85
2022/11/13 15:26:31;;;;;;;82.08;41.45;;;;;;;6.53;100.00;100315.44;4035468;86;21628;-85
2022/11/13 15:40:28;;;;;;;77.47;39.40;;;;;;;6.35;100.00;100311.31;4125007;86;21031;-85
2022/11/13 15:47:42;;;;;;;66.90;35.28;;;;;;;6.30;100.00;100312.81;4148582;83;21911;-85
2022/11/13 15:54:44;;;;;;;67.03;36.33;;;;;;;6.33;100.00;100311.36;4013401;88;21712;-85
2022/11/13 16:01:23;;;;;;;68.25;35.95;;;;;;;6.32;100.00;100316.02;4087685;85;21050;-84
2022/11/13 16:07:48;;;;;;;70.15;35.23;;;;;;;6.29;100.00;100319.92;4114786;86;21614;-85
2022/11/13 16:21:34;;;;;;;65.62;33.02;;;;;;;6.22;100.00;100329.89;4062108;86;22016;-85
2022/11/13 16:28:41;;;;;;;64.80;35.67;;;;;;;6.12;100.00;100337.53;4267954;82;21103;-85
2022/11/13 16:35:30;;;;;;;62.78;33.53;;;;;;;6.08;100.00;100342.78;4269047;81;21048;-84
2022/11/13 16:42:47;;;;;;;61.40;32.40;;;;;;;6.03;100.00;100333.95;4275001;82;21040;-85
2022/11/13 16:49:25;;;;;;;57.98;31.33;;;;;;;5.94;100.00;100334.47;4270532;82;21420;-85
2022/11/13 16:55:57;;;;;;;67.97;36.85;;;;;;;5.89;100.00;100326.44;4272562;82;21140;-85
2022/11/13 17:02:39;;;;;;;67.58;35.90;;;;;;;5.92;100.00;100319.05;4285808;82;21532;-85
2022/11/13 17:09:05;;;;;;;74.82;38.85;;;;;;;5.87;100.00;100310.45;4270670;82;21052;-85
2022/11/13 17:15:31;;;;;;;74.03;39.20;;;;;;;5.87;100.00;100313.16;4273234;82;21102;-86
2022/11/13 17:21:58;;;;;;;82.00;42.17;;;;;;;5.90;100.00;100309.04;4275224;82;21091;-87
2022/11/13 17:28:19;;;;;;;88.97;41.50;;;;;;;5.86;100.00;100307.49;4277532;82;21107;-86
2022/11/13 17:35:10;;;;;;;93.25;45.90;;;;;;;5.80;100.00;100303.28;4184978;81;21644;-85
2022/11/13 17:41:39;;;;;;;89.45;42.03;;;;;;;5.80;100.00;100300.56;4278650;82;21045;-86
2022/11/13 17:47:59;;;;;;;89.87;40.67;;;;;;;5.76;100.00;100307.72;4257701;82;21048;-85
2022/11/13 17:54:28;;;;;;;89.35;41.50;;;;;;;5.74;100.00;100301.00;4287146;82;21525;-86
2022/11/13 18:01:07;;;;;;;86.08;41.42;;;;;;;5.66;100.00;100299.03;4285256;82;21084;-85
2022/11/13 18:07:36;;;;;;;90.62;40.75;;;;;;;5.62;100.00;100300.20;4273199;82;21040;-86
2022/11/13 18:14:03;;;;;;;90.38;41.20;;;;;;;5.62;100.00;100286.62;4260930;82;21746;-83
2022/11/13 18:21:04;;;;;;;92.92;45.38;;;;;;;5.65;100.00;100294.18;4297699;81;21016;-87
2022/11/13 18:34:56;;;;;;;97.62;44.20;;;;;;;5.69;100.00;100292.43;4294462;81;21043;-86
2022/11/13 18:49:17;;;;;;;96.57;43.70;;;;;;;5.73;100.00;100293.40;4169696;84;21058;-85
2022/11/13 18:55:49;;;;;;;95.42;43.80;;;;;;;5.72;100.00;100299.14;4283655;81;21199;-85
2022/11/13 19:02:31;;;;;;;103.72;46.98;;;;;;;5.72;100.00;100290.99;4119989;84;20987;-85
2022/11/13 19:09:19;;;;;;;97.78;44.90;;;;;;;5.80;100.00;100293.77;4211328;84;21946;-85
2022/11/13 19:43:09;;;;;;;89.72;42.58;;;;;;;5.81;100.00;100288.57;4192503;84;21055;-85
2022/11/13 19:49:39;;;;;;;89.32;40.10;;;;;;;5.79;100.00;100289.46;4188633;85;21076;-85
2022/11/13 20:03:16;;;;;;;84.90;38.10;;;;;;;5.68;100.00;100283.23;4184892;85;21126;-85
2022/11/13 20:09:50;;;;;;;79.58;34.33;;;;;;;5.63;100.00;100279.28;4178904;85;20995;-84
2022/11/13 20:16:22;;;;;;;93.27;40.17;;;;;;;5.59;100.00;100276.38;4130683;85;21112;-85
2022/11/13 20:22:51;;;;;;;92.65;38.80;;;;;;;5.52;100.00;100278.75;4148854;83;21215;-84
2022/11/13 20:29:35;;;;;;;89.45;38.15;;;;;;;5.56;100.00;100266.14;4182947;83;21097;-84
2022/11/13 20:43:09;;;;;;;89.37;37.58;;;;;;;5.54;100.00;100267.58;4196457;83;20963;-85
2022/11/13 20:49:40;;;;;;;84.72;36.10;;;;;;;5.58;100.00;100259.04;4171363;83;20999;-84
2022/11/13 20:56:41;;;;;;;81.45;33.45;;;;;;;5.55;100.00;100255.59;4188853;85;21475;-85
2022/11/13 21:10:25;;;;;;;75.22;33.02;;;;;;;5.43;100.00;100254.82;4150218;83;21982;-85
2022/11/13 21:16:59;;;;;;;70.78;31.40;;;;;;;5.44;100.00;100261.03;4190081;83;20991;-86
2022/11/13 21:23:28;;;;;;;80.87;31.87;;;;;;;5.42;100.00;100262.70;4144738;84;21032;-85
2022/11/13 21:29:59;;;;;;;79.50;32.95;;;;;;;5.44;100.00;100254.25;4185102;85;20987;-85
2022/11/13 21:36:52;;;;;;;69.27;30.77;;;;;;;5.46;100.00;100258.81;4187941;85;21093;-84
2022/11/13 21:50:26;;;;;;;61.35;26.60;;;;;;;5.44;100.00;100264.56;4114960;85;21059;-85
2022/11/13 21:57:05;;;;;;;63.58;27.87;;;;;;;5.39;100.00;100260.61;4161198;84;21892;-85
2022/11/13 22:03:47;;;;;;;60.67;25.50;;;;;;;5.33;100.00;100255.06;4160262;85;21075;-85
2022/11/13 22:10:12;;;;;;;68.45;29.65;;;;;;;5.34;100.00;100243.66;4093696;87;21019;-86
2022/11/13 22:16:50;;;;;;;52.70;23.17;;;;;;;5.37;100.00;100234.31;4119873;86;20963;-85
2022/11/13 22:23:56;;;;;;;67.30;28.05;;;;;;;5.38;100.00;100233.22;4150321;84;25209;-85
2022/11/13 22:38:20;;;;;;;59.42;25.57;;;;;;;5.40;100.00;100229.65;4286793;82;21090;-85
2022/11/13 22:44:46;;;;;;;57.27;24.90;;;;;;;5.41;100.00;100217.66;4270760;82;21017;-85
2022/11/13 22:51:40;;;;;;;54.83;24.00;;;;;;;5.44;100.00;100216.22;4281691;82;21020;-85
2022/11/13 23:05:16;;;;;;;44.45;21.48;;;;;;;5.49;100.00;100207.95;4212997;83;21540;-86
2022/11/13 23:11:45;;;;;;;47.65;22.30;;;;;;;5.44;100.00;100214.32;4189448;82;22102;-85
2022/11/13 23:18:41;;;;;;;47.05;22.60;;;;;;;5.41;100.00;100204.09;4175983;83;21155;-85
2022/11/13 23:25:23;;;;;;;;;;;;;;;;;;;;;
2022/11/13 23:31:44;;;;;;;48.00;21.97;;;;;;;5.54;100.00;100195.59;4199809;82;21041;-86
2022/11/13 23:38:15;;;;;;;47.38;22.17;;;;;;;5.56;100.00;100194.16;4262029;82;21052;-86
2022/11/13 23:44:54;;;;;;;58.10;25.97;;;;;;;5.60;100.00;100189.72;4254312;82;21029;-85
2022/11/13 23:51:13;;;;;;;71.57;28.07;;;;;;;5.54;100.00;100184.73;4298695;82;21349;-86
